Portada
METAR-TAF:

METAR-TAF

Aeroports :

Toblach, Itàlia

latitud: 46-44N, longitud: 012-13E, altitud: 1222 m

Observació

L'informe es va fer fa 1 hora i 4 minuts, a les 21:55 UTC
Vent 2 kt amb direcció variable
Temperatura 19°C
Humitat 83%
Pressió 1026 hPa

METAR: LIVD 182155Z AUTO VRB02KT //// 19/16 Q1026

Hora: 00:59 (22:59 UTC)


TAF: manca

Observacions i pronòstics meteorològics de més de 4000 aeroports (METAR i TAF).

Les estacions disponibles són els punts grocs i vermells al mapa.

Posi el ratolí al punt desitjat per veure el nom de l'estació.

Feu clic per veure les observacions i els pronòstics meteorològics.

Per canviar el mapa: feu clic els botons verds amb una creu de color negre per apropar; al botó verd amb un guió per allunyar la imatge; o en les fletxes verdes per a mapes adjacents.


METAR-TAF: